Concord, NH (03301)

12:27 PM EDT on July 23, 2016 (GMT -0400)
East Concord | | Change Station

Elev 341 ft 43.24 °N, 71.53 °W | Updated 4 seconds ago

Clear
Clear
87.9 °F
Feels Like 91 °F
N
1.0
Wind Variable Wind from SE
Gusts 4.0 mph

Today
High -- | Low -- °F
--% Chance of Precip.
Yesterday
High -- | Low -- °F
Precip. -- in
Pressure 29.75 in
Visibility 10.0 miles
Clouds Clear
Heat Index 91 °F
Dew Point 68 °F
Humidity 51%
Rainfall 0.02 in
Snow Depth Not available.
5:27 AM 8:16 PM
Waning Gibbous, 84% visible
METAR KCON 231551Z AUTO 32005G15KT 10SM CLR 32/16 A2976 RMK AO2 SLP074 T03170161
Pressure 29.75 in
Visibility 10.0 miles
Clouds Clear
Heat Index 91 °F
Dew Point 68 °F
Humidity 51%
Rainfall 0.02 in
Snow Depth Not available.
5:27 AM 8:16 PM
Waning Gibbous, 84% visible
METAR KCON 231551Z AUTO 32005G15KT 10SM CLR 32/16 A2976 RMK AO2 SLP074 T03170161

10-Day Weather Forecast

Almanac

Astronomy

Jul. 23, 2016 Rise Set
Actual Time
Civil Twilight
Nautical Twilight
Astronomical Twilight
Moon
Length of Visible Light
Length of Day
Tomorrow will be .
, % of the Moon is Illuminated

Today's Extremes

State Highs State Lows

Community

WunderPhotos

Upload Photos

1,926,858 photos uploaded!

WunderBlog® & News

Nearby

Air Quality

  Air Quality AQ Index Pollutant
Not available.

Snow Depth

Station Depth Elevation

Earthquake Activity

City Distance Mag. Time & Date
Minimum magnitude displayed is 2.5.

Coastal Water Temperatures

Place Temperature

Stations

Nearby Weather Stations

Station Location Temp. Windchill Dew Point Humidity Wind Precip. Elev Updated Type
                   

Watches & Warnings

There are currently no watches in effect.